createdAt,value
2017-07-26T00:01:13.370Z,99718.22
2017-07-26T00:03:42.443Z,99714.38
2017-07-26T00:06:12.257Z,99720.05
2017-07-26T00:08:42.100Z,99722.94
2017-07-26T00:11:11.177Z,99724.89
2017-07-26T00:13:40.236Z,99724.91
2017-07-26T00:16:09.346Z,99725.53
2017-07-26T00:18:38.368Z,99726.13
2017-07-26T00:21:07.451Z,99733.28
2017-07-26T00:23:37.268Z,99732.80
2017-07-26T00:26:07.119Z,99733.00
2017-07-26T00:28:36.171Z,99736.59
2017-07-26T00:31:06.079Z,99744.45
2017-07-26T00:33:35.931Z,99733.68
2017-07-26T00:36:04.989Z,99748.00
2017-07-26T00:38:34.818Z,99743.40
2017-07-26T00:41:04.006Z,99739.08
2017-07-26T00:43:33.835Z,99737.91
2017-07-26T00:46:03.024Z,99738.98
2017-07-26T00:48:32.840Z,99736.64
2017-07-26T00:51:01.903Z,99737.62
2017-07-26T00:53:30.972Z,99741.19
2017-07-26T00:56:00.040Z,99741.62
2017-07-26T00:58:29.118Z,99741.14
2017-07-26T01:00:58.933Z,99745.55
2017-07-26T01:03:28.231Z,99746.44
2017-07-26T01:05:58.063Z,99748.08
2017-07-26T01:08:27.115Z,99748.16
2017-07-26T01:10:56.199Z,99749.23
2017-07-26T01:13:25.376Z,99748.36
2017-07-26T01:15:54.449Z,99756.87
2017-07-26T01:18:23.507Z,99753.63
2017-07-26T01:20:53.351Z,99751.08
2017-07-26T01:23:22.396Z,99748.69
2017-07-26T01:25:51.468Z,99746.81
2017-07-26T01:28:20.508Z,99754.03
2017-07-26T01:30:50.336Z,99751.61
2017-07-26T01:33:19.410Z,99750.81
2017-07-26T01:35:49.235Z,99745.20
2017-07-26T01:38:19.077Z,99738.52
2017-07-26T01:40:48.115Z,99731.11
2017-07-26T01:43:17.196Z,99734.48
2017-07-26T01:45:46.236Z,99726.73
2017-07-26T01:48:15.295Z,99731.31
2017-07-26T01:50:44.363Z,99720.69
2017-07-26T01:53:13.433Z,99722.90
2017-07-26T01:55:42.503Z,99728.08
2017-07-26T01:58:12.344Z,99717.55
2017-07-26T02:00:41.396Z,99721.86
2017-07-26T02:03:10.470Z,99729.50
2017-07-26T02:05:39.545Z,99729.28
2017-07-26T02:08:08.632Z,99729.70
2017-07-26T02:10:37.703Z,99743.77
2017-07-26T02:13:06.766Z,99739.54
2017-07-26T02:15:35.840Z,99742.59
2017-07-26T02:18:04.893Z,99739.54
2017-07-26T02:20:34.699Z,99731.14
2017-07-26T02:23:03.768Z,99736.31
2017-07-26T02:25:33.600Z,99734.64
2017-07-26T02:28:03.454Z,99743.06
2017-07-26T02:30:32.503Z,99727.73
2017-07-26T02:33:02.355Z,99733.28
2017-07-26T02:35:31.436Z,99722.85
2017-07-26T02:38:00.471Z,99722.34
2017-07-26T02:40:29.551Z,99730.55
2017-07-26T02:42:59.626Z,99729.09
2017-07-26T02:45:29.465Z,99737.57
2017-07-26T02:47:58.546Z,99732.51
2017-07-26T02:50:27.636Z,99737.43
2017-07-26T02:52:57.463Z,99732.81
2017-07-26T02:55:26.551Z,99727.37
2017-07-26T02:57:55.619Z,99728.78
2017-07-26T03:00:24.682Z,99730.23
2017-07-26T03:02:53.728Z,99723.30
2017-07-26T03:05:23.556Z,99730.38
2017-07-26T03:07:52.644Z,99735.25
2017-07-26T03:10:21.714Z,99738.77
2017-07-26T03:12:50.808Z,99739.36
2017-07-26T03:15:20.328Z,99727.14
2017-07-26T03:17:49.361Z,99724.63
2017-07-26T03:20:18.432Z,99728.30
2017-07-26T03:22:47.480Z,99723.98
2017-07-26T03:25:16.556Z,99729.95
2017-07-26T03:27:45.601Z,99738.36
2017-07-26T03:30:15.445Z,99725.45
2017-07-26T03:32:44.516Z,99733.88
2017-07-26T03:35:14.337Z,99731.98
2017-07-26T03:37:44.159Z,99742.77
2017-07-26T03:40:13.249Z,99738.20
2017-07-26T03:42:42.303Z,99733.70
2017-07-26T03:45:11.400Z,99732.51
2017-07-26T03:47:40.451Z,99731.16
2017-07-26T03:50:09.536Z,99732.89
2017-07-26T03:52:38.647Z,99730.95
2017-07-26T03:55:07.694Z,99727.50
2017-07-26T03:57:37.543Z,99727.82
2017-07-26T04:00:06.625Z,99734.93
2017-07-26T04:02:36.464Z,99735.08
2017-07-26T04:05:05.548Z,99729.66
2017-07-26T04:07:34.598Z,99725.94
2017-07-26T04:10:03.683Z,99724.16
2017-07-26T04:12:32.759Z,99724.97
2017-07-26T04:15:01.842Z,99733.56
2017-07-26T04:17:30.914Z,99734.95
2017-07-26T04:19:59.959Z,99735.64
2017-07-26T04:22:29.055Z,99732.13
2017-07-26T04:24:58.109Z,99731.81
2017-07-26T04:27:27.175Z,99734.73
2017-07-26T04:29:57.007Z,99736.03
2017-07-26T04:32:26.056Z,99738.77
2017-07-26T04:34:55.188Z,99741.91
2017-07-26T04:37:25.315Z,99741.41
2017-07-26T04:39:54.385Z,99750.03
2017-07-26T04:42:24.211Z,99741.54
2017-07-26T04:44:53.289Z,99743.35
2017-07-26T04:47:22.354Z,99749.25
2017-07-26T04:49:51.471Z,99744.25
2017-07-26T04:52:20.525Z,99740.77
2017-07-26T04:54:49.582Z,99739.98
2017-07-26T04:57:19.428Z,99741.34
2017-07-26T04:59:48.490Z,99745.65
2017-07-26T05:02:18.299Z,99744.69
2017-07-26T05:04:48.143Z,99746.84
2017-07-26T05:07:17.203Z,99752.00
2017-07-26T05:09:47.035Z,99760.24
2017-07-26T05:12:16.143Z,99749.58
2017-07-26T05:14:45.344Z,99756.02
2017-07-26T05:17:14.410Z,99752.33
2017-07-26T05:19:43.500Z,99757.61
2017-07-26T05:22:12.561Z,99756.68
2017-07-26T05:24:41.614Z,99756.50
2017-07-26T05:27:10.677Z,99753.77
2017-07-26T05:29:39.732Z,99750.41
2017-07-26T05:32:09.445Z,99753.67
2017-07-26T05:34:38.516Z,99750.34
2017-07-26T05:37:07.595Z,99748.07
2017-07-26T05:39:37.438Z,99749.84
2017-07-26T05:42:06.496Z,99756.05
2017-07-26T05:44:36.357Z,99760.83
2017-07-26T05:47:05.456Z,99754.84
2017-07-26T05:49:34.540Z,99758.08
2017-07-26T05:52:04.779Z,99771.56
2017-07-26T05:54:33.835Z,99765.88
2017-07-26T05:57:02.932Z,99764.50
2017-07-26T05:59:31.978Z,99762.36
2017-07-26T06:02:01.040Z,99763.37
2017-07-26T06:04:30.109Z,99765.45
2017-07-26T06:06:59.920Z,99759.52
2017-07-26T06:09:28.972Z,99765.63
2017-07-26T06:11:58.029Z,99767.72
2017-07-26T06:14:27.112Z,99769.91
2017-07-26T06:16:56.172Z,99765.91
2017-07-26T06:19:25.215Z,99770.06
2017-07-26T06:21:54.286Z,99775.06
2017-07-26T06:24:24.123Z,99774.77
2017-07-26T06:26:53.182Z,99770.14
2017-07-26T06:29:22.262Z,99775.64
2017-07-26T06:31:51.290Z,99782.69
2017-07-26T06:34:20.368Z,99779.56
2017-07-26T06:36:50.302Z,99775.25
2017-07-26T06:39:20.111Z,99783.48
2017-07-26T06:41:49.172Z,99779.03
2017-07-26T06:44:18.285Z,99782.45
2017-07-26T06:46:48.115Z,99787.83
2017-07-26T06:49:17.185Z,99786.08
2017-07-26T06:51:46.260Z,99797.25
2017-07-26T06:54:15.315Z,99797.13
2017-07-26T06:56:44.375Z,99797.97
2017-07-26T06:59:13.430Z,99804.58
2017-07-26T07:01:42.528Z,99799.92
2017-07-26T07:04:11.610Z,99812.77
2017-07-26T07:06:40.800Z,99805.45
2017-07-26T07:09:09.903Z,99808.03
2017-07-26T07:11:38.940Z,99810.45
2017-07-26T07:14:08.029Z,99808.78
2017-07-26T07:16:37.081Z,99809.05
2017-07-26T07:19:06.189Z,99813.18
2017-07-26T07:21:35.257Z,99811.41
2017-07-26T07:24:04.327Z,99808.91
2017-07-26T07:26:33.397Z,99814.14
2017-07-26T07:29:02.475Z,99810.17
2017-07-26T07:31:31.555Z,99814.98
2017-07-26T07:34:00.591Z,99821.66
2017-07-26T07:36:29.672Z,99824.99
2017-07-26T07:38:58.742Z,99826.39
2017-07-26T07:41:27.819Z,99828.58
2017-07-26T07:43:56.874Z,99833.41
2017-07-26T07:46:25.958Z,99829.09
2017-07-26T07:48:55.055Z,99832.14
2017-07-26T07:51:24.079Z,99831.55
2017-07-26T07:53:53.167Z,99821.36
2017-07-26T07:56:22.207Z,99828.06
2017-07-26T07:58:51.291Z,99824.28
2017-07-26T08:01:20.347Z,99819.88
2017-07-26T08:03:49.396Z,99821.27
2017-07-26T08:06:18.490Z,99823.19
2017-07-26T08:08:47.540Z,99819.06
2017-07-26T08:11:17.393Z,99821.45
2017-07-26T08:13:46.444Z,99824.05
2017-07-26T08:16:16.272Z,99824.31
2017-07-26T08:18:45.324Z,99822.17
2017-07-26T08:21:14.388Z,99818.45
2017-07-26T08:23:43.445Z,99820.55
2017-07-26T08:26:13.299Z,99810.14
2017-07-26T08:28:42.384Z,99816.66
2017-07-26T08:31:11.427Z,99822.37
2017-07-26T08:33:40.503Z,99820.40
2017-07-26T08:36:09.604Z,99811.92
2017-07-26T08:38:38.643Z,99813.14
2017-07-26T08:41:08.505Z,99813.16
2017-07-26T08:43:37.555Z,99804.70
2017-07-26T08:46:06.705Z,99814.35
2017-07-26T08:48:35.743Z,99811.77
2017-07-26T08:51:05.619Z,99814.94
2017-07-26T08:53:34.675Z,99810.77
2017-07-26T08:56:03.743Z,99816.51
2017-07-26T08:58:33.571Z,99815.94
2017-07-26T09:01:03.397Z,99817.50
2017-07-26T09:03:32.485Z,99820.25
2017-07-26T09:06:01.557Z,99819.86
2017-07-26T09:08:31.396Z,99821.05
2017-07-26T09:11:00.480Z,99831.48
2017-07-26T09:13:29.563Z,99824.41
2017-07-26T09:15:59.391Z,99831.70
2017-07-26T09:18:28.435Z,99829.89
2017-07-26T09:20:57.522Z,99824.58
2017-07-26T09:23:26.614Z,99815.55
2017-07-26T09:25:55.655Z,99818.47
2017-07-26T09:28:25.455Z,99821.86
2017-07-26T09:30:55.307Z,99820.25
2017-07-26T09:33:24.366Z,99819.98
2017-07-26T09:35:53.408Z,99819.01
2017-07-26T09:38:22.495Z,99823.16
2017-07-26T09:40:51.563Z,99825.94
2017-07-26T09:43:21.391Z,99822.72
2017-07-26T09:45:50.428Z,99826.23
2017-07-26T09:48:19.521Z,99827.11
2017-07-26T09:50:48.591Z,99826.17
2017-07-26T09:53:17.655Z,99833.28
2017-07-26T09:55:47.490Z,99833.06
2017-07-26T09:58:16.563Z,99829.42
2017-07-26T10:00:46.397Z,99823.36
2017-07-26T10:03:15.474Z,99826.42
2017-07-26T10:05:44.512Z,99825.11
2017-07-26T10:08:13.575Z,99822.59
2017-07-26T10:10:42.634Z,99826.85
2017-07-26T10:13:11.704Z,99837.09
2017-07-26T10:15:40.768Z,99831.31
2017-07-26T10:18:09.835Z,99826.69
2017-07-26T10:20:39.654Z,99836.66
2017-07-26T10:23:09.512Z,99838.60
2017-07-26T10:25:38.553Z,99836.78
2017-07-26T10:28:07.647Z,99840.56
2017-07-26T10:30:36.680Z,99848.66
2017-07-26T10:33:05.722Z,99849.72
2017-07-26T10:35:34.794Z,99846.72
2017-07-26T10:38:03.856Z,99852.08
2017-07-26T10:40:32.911Z,99852.66
2017-07-26T10:43:01.979Z,99853.27
2017-07-26T10:45:31.024Z,99863.87
2017-07-26T10:48:00.101Z,99860.01
2017-07-26T10:50:29.155Z,99853.70
2017-07-26T10:52:58.220Z,99858.02
2017-07-26T10:55:27.284Z,99861.73
2017-07-26T10:57:56.344Z,99857.73
2017-07-26T11:00:25.443Z,99860.11
2017-07-26T11:02:54.515Z,99863.70
2017-07-26T11:05:23.561Z,99859.70
2017-07-26T11:07:52.681Z,99858.95
2017-07-26T11:10:22.509Z,99860.09
2017-07-26T11:12:51.554Z,99845.64
2017-07-26T11:15:20.812Z,99848.89
2017-07-26T11:17:49.878Z,99845.25
2017-07-26T11:20:19.692Z,99845.05
2017-07-26T11:22:48.763Z,99846.95
2017-07-26T11:25:17.879Z,99840.14
2017-07-26T11:27:46.920Z,99846.22
2017-07-26T11:30:16.031Z,99837.71
2017-07-26T11:32:45.038Z,99840.48
2017-07-26T11:35:15.076Z,99839.34
2017-07-26T11:37:44.220Z,99837.78
2017-07-26T11:40:13.323Z,99838.56
2017-07-26T11:42:42.415Z,99842.53
2017-07-26T11:45:11.493Z,99836.28
2017-07-26T11:47:40.550Z,99825.75
2017-07-26T11:50:10.387Z,99829.24
2017-07-26T11:52:40.215Z,99834.07
2017-07-26T11:55:09.376Z,99834.66
2017-07-26T11:57:38.405Z,99834.64
2017-07-26T12:00:07.539Z,99834.73
2017-07-26T12:02:36.571Z,99837.95
2017-07-26T12:05:06.407Z,99835.36
2017-07-26T12:07:35.452Z,99833.23
2017-07-26T12:10:04.515Z,99833.97
2017-07-26T12:12:33.554Z,99828.56
2017-07-26T12:15:03.372Z,99831.48
2017-07-26T12:17:32.437Z,99832.42
2017-07-26T12:20:02.295Z,99841.22
2017-07-26T12:22:32.135Z,99822.84
2017-07-26T12:25:01.250Z,99831.83
2017-07-26T12:27:30.276Z,99835.11
2017-07-26T12:30:00.170Z,99835.20
2017-07-26T12:32:29.227Z,99837.12
2017-07-26T12:34:58.263Z,99837.02
2017-07-26T12:37:27.320Z,99846.44
2017-07-26T12:39:56.393Z,99833.60
2017-07-26T12:42:25.555Z,99831.64
2017-07-26T12:44:55.724Z,99823.10
2017-07-26T12:47:24.768Z,99831.34
2017-07-26T12:49:53.845Z,99840.67
2017-07-26T12:52:22.879Z,99831.72
2017-07-26T12:54:52.687Z,99835.64
2017-07-26T12:57:22.537Z,99829.98
2017-07-26T12:59:51.591Z,99831.55
2017-07-26T13:02:20.960Z,99838.64
2017-07-26T13:04:50.014Z,99826.41
2017-07-26T13:07:19.929Z,99820.88
2017-07-26T13:09:49.022Z,99820.58
2017-07-26T13:12:18.823Z,99825.77
2017-07-26T13:14:48.644Z,99821.94
2017-07-26T13:17:19.091Z,99821.80
2017-07-26T13:19:48.156Z,99823.05
2017-07-26T13:22:17.980Z,99818.70
2017-07-26T13:24:47.824Z,99822.70
2017-07-26T13:27:16.919Z,99818.61
2017-07-26T13:29:45.979Z,99819.81
2017-07-26T13:32:15.795Z,99817.83
2017-07-26T13:34:45.600Z,99820.20
2017-07-26T13:37:15.569Z,99822.77
2017-07-26T13:39:44.652Z,99820.52
2017-07-26T13:42:13.688Z,99816.18
2017-07-26T13:44:42.765Z,99813.14
2017-07-26T13:47:11.819Z,99811.48
2017-07-26T13:49:40.876Z,99803.04
2017-07-26T13:52:10.052Z,99802.66
2017-07-26T13:54:39.378Z,99799.11
2017-07-26T13:57:08.444Z,99799.97
2017-07-26T13:59:37.492Z,99795.34
2017-07-26T14:02:06.576Z,99808.71
2017-07-26T14:04:35.607Z,99799.15
2017-07-26T14:07:04.672Z,99803.73
2017-07-26T14:09:33.718Z,99796.45
2017-07-26T14:12:02.794Z,99798.86
2017-07-26T14:14:31.855Z,99796.13
2017-07-26T14:17:01.661Z,99794.84
2017-07-26T14:19:31.501Z,99795.63
2017-07-26T14:22:00.575Z,99791.58
2017-07-26T14:24:30.417Z,99789.30
2017-07-26T14:26:59.466Z,99791.47
2017-07-26T14:29:28.525Z,99795.81
2017-07-26T14:31:57.877Z,99799.33
2017-07-26T14:34:27.678Z,99792.60
2017-07-26T14:36:57.510Z,99796.91
2017-07-26T14:39:26.587Z,99792.21
2017-07-26T14:41:56.415Z,99796.55
2017-07-26T14:44:25.451Z,99793.98
2017-07-26T14:46:54.492Z,99795.91
2017-07-26T14:49:24.321Z,99797.30
2017-07-26T14:51:53.365Z,99795.91
2017-07-26T14:54:22.412Z,99793.20
2017-07-26T14:56:51.471Z,99791.29
2017-07-26T14:59:22.063Z,99794.88
2017-07-26T15:01:52.764Z,99789.97
2017-07-26T15:04:21.795Z,99787.02
2017-07-26T15:06:50.845Z,99784.98
2017-07-26T15:09:20.651Z,99789.53
2017-07-26T15:11:50.494Z,99789.96
2017-07-26T15:14:19.524Z,99793.17
2017-07-26T15:16:48.603Z,99791.47
2017-07-26T15:19:17.625Z,99792.78
2017-07-26T15:21:46.668Z,99786.95
2017-07-26T15:24:15.739Z,99791.72
2017-07-26T15:26:45.562Z,99787.37
2017-07-26T15:29:15.372Z,99792.60
2017-07-26T15:31:45.206Z,99792.17
2017-07-26T15:34:15.205Z,99785.84
2017-07-26T15:36:45.028Z,99790.86
2017-07-26T15:39:14.155Z,99791.50
2017-07-26T15:41:43.199Z,99786.55
2017-07-26T15:44:12.245Z,99787.30
2017-07-26T15:46:41.341Z,99781.57
2017-07-26T15:49:10.413Z,99778.51
2017-07-26T15:51:39.461Z,99782.74
2017-07-26T15:54:08.528Z,99775.23
2017-07-26T15:56:37.579Z,99772.53
2017-07-26T15:59:06.640Z,99776.44
2017-07-26T16:01:35.695Z,99772.70
2017-07-26T16:04:04.756Z,99772.82
2017-07-26T16:06:34.592Z,99776.52
2017-07-26T16:09:03.638Z,99774.30
2017-07-26T16:11:32.706Z,99767.09
2017-07-26T16:14:01.756Z,99765.86
2017-07-26T16:16:31.591Z,99769.52
2017-07-26T16:19:00.675Z,99764.98
2017-07-26T16:21:29.744Z,99765.35
2017-07-26T16:23:59.567Z,99772.11
2017-07-26T16:26:29.396Z,99762.73
2017-07-26T16:28:58.573Z,99765.13
2017-07-26T16:31:28.379Z,99768.54
2017-07-26T16:33:57.442Z,99763.34
2017-07-26T16:36:26.505Z,99763.42
2017-07-26T16:38:55.593Z,99761.90
2017-07-26T16:41:24.662Z,99764.71
2017-07-26T16:43:53.724Z,99767.80
2017-07-26T16:46:22.763Z,99769.32
2017-07-26T16:48:52.580Z,99769.48
2017-07-26T16:51:21.658Z,99776.55
2017-07-26T16:53:51.472Z,99765.14
2017-07-26T16:56:20.522Z,99767.81
2017-07-26T16:58:49.559Z,99764.47
2017-07-26T17:01:18.620Z,99758.14
2017-07-26T17:03:47.676Z,99763.16
2017-07-26T17:06:16.923Z,99760.25
2017-07-26T17:08:45.975Z,99769.21
2017-07-26T17:11:15.056Z,99774.02
2017-07-26T17:13:44.113Z,99769.07
2017-07-26T17:16:13.176Z,99771.31
2017-07-26T17:18:42.229Z,99763.95
2017-07-26T17:21:12.065Z,99764.16
2017-07-26T17:23:41.110Z,99767.05
2017-07-26T17:26:11.024Z,99770.95
2017-07-26T17:28:40.079Z,99768.24
2017-07-26T17:31:09.156Z,99772.25
2017-07-26T17:33:38.244Z,99768.06
2017-07-26T17:36:08.091Z,99768.52
2017-07-26T17:38:37.167Z,99775.52
2017-07-26T17:41:06.226Z,99773.23
2017-07-26T17:43:35.267Z,99773.32
2017-07-26T17:46:04.321Z,99772.36
2017-07-26T17:48:33.376Z,99774.19
2017-07-26T17:51:02.468Z,99772.90
2017-07-26T17:53:31.488Z,99775.48
2017-07-26T17:56:00.576Z,99776.56
2017-07-26T17:58:29.645Z,99779.78
2017-07-26T18:00:58.711Z,99773.45
2017-07-26T18:03:28.517Z,99770.47
2017-07-26T18:05:58.318Z,99779.86
2017-07-26T18:08:28.179Z,99776.18
2017-07-26T18:10:57.223Z,99778.61
2017-07-26T18:13:27.032Z,99779.88
2017-07-26T18:15:56.086Z,99780.89
2017-07-26T18:18:25.129Z,99776.45
2017-07-26T18:20:54.216Z,99774.73
2017-07-26T18:23:23.256Z,99782.70
2017-07-26T18:25:52.318Z,99771.28
2017-07-26T18:28:22.145Z,99775.08
2017-07-26T18:30:51.177Z,99772.94
2017-07-26T18:33:20.761Z,99767.05
2017-07-26T18:35:49.819Z,99764.70
2017-07-26T18:38:18.875Z,99773.05
2017-07-26T18:40:47.937Z,99763.86
2017-07-26T18:43:16.964Z,99765.05
2017-07-26T18:45:46.016Z,99764.06
2017-07-26T18:48:15.093Z,99767.02
2017-07-26T18:50:44.121Z,99770.04
2017-07-26T18:53:13.167Z,99767.70
2017-07-26T18:55:42.224Z,99766.55
2017-07-26T18:58:11.264Z,99767.36
2017-07-26T19:00:40.393Z,99768.56
2017-07-26T19:03:09.569Z,99773.73
2017-07-26T19:05:39.373Z,99772.41
2017-07-26T19:08:08.462Z,99773.22
2017-07-26T19:10:37.513Z,99763.97
2017-07-26T19:13:06.563Z,99766.98
2017-07-26T19:15:36.373Z,99768.75
2017-07-26T19:18:06.224Z,99770.15
2017-07-26T19:20:35.271Z,99768.60
2017-07-26T19:23:04.359Z,99766.67
2017-07-26T19:25:33.431Z,99765.91
2017-07-26T19:28:02.475Z,99763.58
2017-07-26T19:30:32.294Z,99771.89
2017-07-26T19:33:02.164Z,99767.55
2017-07-26T19:35:31.272Z,99768.16
2017-07-26T19:38:00.337Z,99768.76
2017-07-26T19:40:29.377Z,99767.98
2017-07-26T19:42:59.197Z,99765.02
2017-07-26T19:45:29.044Z,99760.72
2017-07-26T19:47:58.112Z,99763.86
2017-07-26T19:50:27.945Z,99758.97
2017-07-26T19:52:57.005Z,99757.56
2017-07-26T19:55:26.107Z,99758.35
2017-07-26T19:57:55.186Z,99761.52
2017-07-26T20:00:24.243Z,99759.17
2017-07-26T20:02:53.289Z,99766.44
2017-07-26T20:05:23.119Z,99764.87
2017-07-26T20:07:53.116Z,99762.70
2017-07-26T20:10:23.085Z,99770.59
2017-07-26T20:12:52.140Z,99772.38
2017-07-26T20:15:22.030Z,99769.83
2017-07-26T20:17:51.083Z,99771.59
2017-07-26T20:20:20.155Z,99773.96
2017-07-26T20:22:49.206Z,99778.50
2017-07-26T20:25:18.348Z,99769.24
2017-07-26T20:27:48.163Z,99764.67
2017-07-26T20:30:17.221Z,99760.94
2017-07-26T20:32:46.287Z,99753.47
2017-07-26T20:35:15.365Z,99765.68
2017-07-26T20:37:44.469Z,99757.41
2017-07-26T20:40:13.526Z,99752.09
2017-07-26T20:42:43.344Z,99750.33
2017-07-26T20:45:12.393Z,99751.70
2017-07-26T20:47:41.445Z,99749.75
2017-07-26T20:50:10.520Z,99753.48
2017-07-26T20:52:40.348Z,99757.43
2017-07-26T20:55:09.542Z,99752.91
2017-07-26T20:57:38.584Z,99754.67
2017-07-26T21:00:07.733Z,99756.86
2017-07-26T21:02:38.219Z,99754.87
2017-07-26T21:05:07.309Z,99755.48
2017-07-26T21:07:36.373Z,99750.55
2017-07-26T21:10:05.445Z,99752.52
2017-07-26T21:12:34.488Z,99745.42
2017-07-26T21:15:03.565Z,99748.16
2017-07-26T21:17:32.720Z,99747.19
2017-07-26T21:20:01.776Z,99743.03
2017-07-26T21:22:30.828Z,99738.34
2017-07-26T21:24:59.893Z,99732.61
2017-07-26T21:27:28.956Z,99735.36
2017-07-26T21:29:58.008Z,99731.82
2017-07-26T21:32:27.131Z,99727.69
2017-07-26T21:34:56.200Z,99734.78
2017-07-26T21:37:25.252Z,99727.70
2017-07-26T21:39:55.090Z,99729.66
2017-07-26T21:42:24.920Z,99727.30
2017-07-26T21:44:53.990Z,99726.12
2017-07-26T21:47:23.086Z,99726.92
2017-07-26T21:49:52.130Z,99726.33
2017-07-26T21:52:21.186Z,99724.54
2017-07-26T21:54:51.016Z,99717.45
2017-07-26T21:57:20.071Z,99719.23
2017-07-26T21:59:49.144Z,99719.83
2017-07-26T22:02:18.269Z,99723.78
2017-07-26T22:07:43.123Z,99707.22
2017-07-26T22:10:12.186Z,99706.43
2017-07-26T22:12:42.008Z,99707.22
2017-07-26T22:15:11.840Z,99701.33
2017-07-26T22:17:40.897Z,99701.32
2017-07-26T22:20:09.979Z,99701.13
2017-07-26T22:22:39.012Z,99700.14
2017-07-26T22:25:08.118Z,99702.69
2017-07-26T22:27:37.915Z,99693.83
2017-07-26T22:30:07.759Z,99688.50
2017-07-26T22:32:36.813Z,99677.09
2017-07-26T22:35:06.614Z,99682.98
2017-07-26T22:37:35.654Z,99686.34
2017-07-26T22:40:04.734Z,99684.55
2017-07-26T22:42:33.776Z,99690.06
2017-07-26T22:45:02.867Z,99691.27
2017-07-26T22:47:31.923Z,99693.44
2017-07-26T22:50:01.737Z,99690.86
2017-07-26T22:52:30.820Z,99691.27
2017-07-26T22:55:00.633Z,99696.78
2017-07-26T22:57:29.718Z,99695.20
2017-07-26T22:59:58.745Z,99684.16
2017-07-26T23:02:27.830Z,99680.63
2017-07-26T23:04:57.632Z,99687.51
2017-07-26T23:07:26.671Z,99679.05
2017-07-26T23:09:55.719Z,99675.13
2017-07-26T23:12:24.771Z,99676.29
2017-07-26T23:14:53.852Z,99674.50
2017-07-26T23:17:22.912Z,99678.84
2017-07-26T23:19:51.974Z,99680.22
2017-07-26T23:22:21.036Z,99675.27
2017-07-26T23:24:50.067Z,99672.73
2017-07-26T23:27:19.892Z,99671.34
2017-07-26T23:29:49.740Z,99670.73
2017-07-26T23:32:18.790Z,99675.86
2017-07-26T23:34:48.620Z,99670.93
2017-07-26T23:37:17.654Z,99668.57
2017-07-26T23:39:47.175Z,99669.75
2017-07-26T23:42:16.257Z,99667.97
2017-07-26T23:44:45.343Z,99668.94
2017-07-26T23:47:14.393Z,99679.21
2017-07-26T23:49:43.656Z,99676.25
2017-07-26T23:52:13.282Z,99678.62
2017-07-26T23:54:42.330Z,99679.19
2017-07-26T23:57:11.385Z,99680.58
2017-07-26T23:59:40.452Z,99683.31
